Time;durP1;ratioP1;P1;durP2;ratioP2;P2;SDS_P1;SDS_P2;PMS_P1;PMS_P2;Temp;Humidity;BMP_temperature;BMP_pressure;BME280_temperature;BME280_humidity;BME280_pressure;Samples;Min_cycle;Max_cycle;Signal;HPM_P1;HPM_P2
2021/05/13 00:02:04;;;;;;;;;;;;;;;10.42;65.20;95546.44;1715008;82;21842;-62
2021/05/13 00:04:30;;;;;;;;;;;;;;;10.42;65.31;95537.84;1724108;82;20253;-65
2021/05/13 00:06:57;;;;;;;;;;;;;;;10.39;65.68;95532.43;1721049;82;20235;-63
2021/05/13 00:09:23;;;;;;;;;;;;;;;10.34;65.59;95533.80;1690267;84;20271;-64
2021/05/13 00:11:52;;;;;;;;;;;;;;;10.30;65.88;95530.62;1687586;84;20254;-63
2021/05/13 00:14:18;;;;;;;;;;;;;;;10.26;65.89;95532.66;1688373;84;21100;-61
2021/05/13 00:16:50;;;;;;;;;;;;;;;10.27;65.89;95527.80;1697788;81;20229;-63
2021/05/13 00:19:17;;;;;;;;;;;;;;;10.26;65.92;95527.94;1756502;80;20544;-60
2021/05/13 00:21:45;;;;;;;;;;;;;;;10.23;65.99;95525.60;1718700;83;20273;-62
2021/05/13 00:24:12;;;;;;;;;;;;;;;10.19;66.28;95518.57;1720243;82;20247;-61
2021/05/13 00:26:44;;;;;;;;;;;;;;;10.19;66.41;95525.53;1723059;82;21084;-61
2021/05/13 00:29:21;;;;;;;;;;;;;;;10.19;66.22;95525.05;1723376;81;20214;-61
2021/05/13 00:31:46;;;;;;;;;;;;;;;10.25;66.10;95536.69;1715503;82;20236;-63
2021/05/13 00:34:12;;;;;;;;;;;;;;;10.35;65.88;95532.37;1723560;82;20258;-62
2021/05/13 00:36:39;;;;;;;;;;;;;;;10.43;65.50;95525.23;1724243;81;20228;-62
2021/05/13 00:39:07;;;;;;;;;;;;;;;10.45;65.36;95522.83;1723512;82;21828;-62
2021/05/13 00:41:33;;;;;;;;;;;;;;;10.44;65.55;95517.32;1726676;83;20741;-63
2021/05/13 00:44:00;;;;;;;;;;;;;;;10.41;65.62;95520.17;1716304;82;20583;-61
2021/05/13 00:46:26;;;;;;;;;;;;;;;10.36;65.88;95518.46;1726441;83;20261;-62
2021/05/13 00:49:01;;;;;;;;;;;;;;;10.33;66.23;95516.13;1718021;83;20589;-63
2021/05/13 00:51:21;;;;;;;;;;;;;;;10.27;66.73;95510.95;1708173;81;21077;-60
2021/05/13 00:53:47;;;;;;;;;;;;;;;10.25;66.99;95512.87;1714368;81;20245;-60
2021/05/13 00:56:14;;;;;;;;;;;;;;;10.23;66.71;95504.86;1716951;83;20584;-61
2021/05/13 00:58:43;;;;;;;;;;;;;;;10.22;66.91;95504.05;1723131;83;20265;-61
2021/05/13 01:01:12;;;;;;;;;;;;;;;10.22;67.01;95501.95;1717979;83;20251;-57
2021/05/13 01:03:36;;;;;;;;;;;;;;;10.21;67.15;95500.30;1718414;81;21110;-63
2021/05/13 01:06:07;;;;;;;;;;;;;;;10.17;67.11;95497.16;1713831;83;20249;-62
2021/05/13 01:08:34;;;;;;;;;;;;;;;10.14;67.04;95503.41;1711527;83;20208;-62
2021/05/13 01:11:01;;;;;;;;;;;;;;;10.17;67.45;95497.16;1726155;83;20273;-61
2021/05/13 01:13:28;;;;;;;;;;;;;;;10.28;68.06;95484.57;1716544;83;20572;-63
2021/05/13 01:16:10;;;;;;;;;;;;;;;10.40;68.40;95491.78;1722208;83;21049;-62
2021/05/13 01:18:24;;;;;;;;;;;;;;;10.46;68.06;95494.66;1713916;81;20261;-62
2021/05/13 01:20:51;;;;;;;;;;;;;;;10.52;68.05;95496.37;1721073;83;20639;-63
2021/05/13 01:23:20;;;;;;;;;;;;;;;10.57;67.69;95492.89;1693312;83;20234;-63
2021/05/13 01:25:51;;;;;;;;;;;;;;;10.60;67.57;95484.35;1725914;82;20238;-64
2021/05/13 01:28:18;;;;;;;;;;;;;;;10.59;67.14;95482.73;1716137;83;21011;-62
2021/05/13 01:30:45;;;;;;;;;;;;;;;10.49;67.12;95477.53;1722916;83;20269;-65
2021/05/13 01:33:12;;;;;;;;;;;;;;;10.34;67.43;95476.27;1716858;83;20573;-64
2021/05/13 01:35:40;;;;;;;;;;;;;;;10.16;68.04;95466.98;1721666;81;20577;-63
2021/05/13 01:38:10;;;;;;;;;;;;;;;9.98;68.92;95464.22;1719315;81;20253;-59
2021/05/13 01:40:36;;;;;;;;;;;;;;;9.81;69.72;95462.27;1715976;81;20661;-63
2021/05/13 01:43:03;;;;;;;;;;;;;;;9.63;70.25;95461.58;1709789;83;20932;-60
2021/05/13 01:45:32;;;;;;;;;;;;;;;9.56;70.79;95456.59;1713361;81;20605;-64
2021/05/13 01:48:03;;;;;;;;;;;;;;;9.51;71.26;95454.38;1721057;81;20265;-62
2021/05/13 01:50:31;;;;;;;;;;;;;;;9.45;71.50;95456.67;1716592;83;20215;-63
2021/05/13 01:52:58;;;;;;;;;;;;;;;9.38;71.68;95449.41;1721024;81;21131;-58
2021/05/13 01:55:25;;;;;;;;;;;;;;;9.37;71.83;95456.01;1725267;81;20238;-57
2021/05/13 01:57:53;;;;;;;;;;;;;;;9.42;71.93;95455.14;1713601;83;20242;-57
2021/05/13 02:00:20;;;;;;;;;;;;;;;9.49;71.89;95454.15;1716591;83;20307;-55
2021/05/13 02:02:49;;;;;;;;;;;;;;;9.57;71.55;95450.44;1724373;83;20593;-59
2021/05/13 02:05:17;;;;;;;;;;;;;;;9.64;70.85;95442.52;1709798;81;21862;-55
2021/05/13 02:07:43;;;;;;;;;;;;;;;9.66;70.62;95438.50;1714895;82;20207;-56
2021/05/13 02:10:12;;;;;;;;;;;;;;;9.66;70.61;95441.90;1714077;82;20256;-56
2021/05/13 02:12:39;;;;;;;;;;;;;;;9.69;70.58;95438.23;1718556;82;20256;-55
2021/05/13 02:15:08;;;;;;;;;;;;;;;9.74;70.40;95436.08;1695525;83;20216;-56
2021/05/13 02:17:36;;;;;;;;;;;;;;;9.79;70.25;95435.69;1725195;80;21764;-56
2021/05/13 02:20:04;;;;;;;;;;;;;;;9.80;69.99;95434.23;1723480;81;20291;-55
2021/05/13 02:22:31;;;;;;;;;;;;;;;9.79;70.13;95431.31;1724598;81;20247;-56
2021/05/13 02:24:57;;;;;;;;;;;;;;;9.79;70.19;95422.25;1727700;80;20550;-55
2021/05/13 02:27:24;;;;;;;;;;;;;;;9.85;70.09;95426.91;1728559;80;20628;-55
2021/05/13 02:29:51;;;;;;;;;;;;;;;9.94;70.04;95425.28;1724619;81;21092;-55
2021/05/13 02:32:17;;;;;;;;;;;;;;;9.98;69.91;95425.83;1723034;82;20206;-55
2021/05/13 02:34:43;;;;;;;;;;;;;;;9.94;70.10;95421.40;1727286;81;20299;-56
2021/05/13 02:37:10;;;;;;;;;;;;;;;9.95;69.93;95419.97;1723300;81;20230;-55
2021/05/13 02:39:36;;;;;;;;;;;;;;;9.92;70.06;95420.23;1716945;81;20233;-56
2021/05/13 02:42:03;;;;;;;;;;;;;;;9.98;70.34;95416.77;1729532;82;21067;-55
2021/05/13 02:44:30;;;;;;;;;;;;;;;10.03;70.26;95412.84;1716777;82;20177;-56
2021/05/13 02:46:56;;;;;;;;;;;;;;;10.09;69.92;95410.17;1712288;82;20240;-55
2021/05/13 02:49:23;;;;;;;;;;;;;;;10.05;69.61;95399.27;1721128;81;20221;-56
2021/05/13 02:51:49;;;;;;;;;;;;;;;9.95;69.72;95408.31;1723240;81;20233;-56
2021/05/13 02:54:15;;;;;;;;;;;;;;;9.89;70.25;95407.54;1719455;81;21640;-55
2021/05/13 02:56:42;;;;;;;;;;;;;;;9.92;70.50;95411.16;1716042;81;20669;-56
2021/05/13 02:59:10;;;;;;;;;;;;;;;9.98;70.45;95423.24;1719313;81;20565;-54
2021/05/13 03:01:36;;;;;;;;;;;;;;;10.05;70.32;95425.17;1719708;80;20202;-55
2021/05/13 03:04:03;;;;;;;;;;;;;;;10.10;70.15;95423.00;1716318;80;20584;-56
2021/05/13 03:06:30;;;;;;;;;;;;;;;10.16;69.81;95416.93;1725060;80;21061;-55
2021/05/13 03:08:59;;;;;;;;;;;;;;;10.14;69.56;95408.80;1721968;82;20239;-56
2021/05/13 03:11:27;;;;;;;;;;;;;;;10.00;69.62;95406.62;1727433;80;20593;-57
2021/05/13 03:13:54;;;;;;;;;;;;;;;9.85;70.27;95417.00;1719750;82;20579;-56
2021/05/13 03:16:21;;;;;;;;;;;;;;;9.64;71.11;95415.32;1722556;81;20336;-56
2021/05/13 03:18:53;;;;;;;;;;;;;;;9.47;71.67;95408.16;1710685;80;21084;-57
2021/05/13 03:21:42;;;;;;;;;;;;;;;9.35;72.52;95403.06;1724923;80;20616;-57
2021/05/13 03:29:03;;;;;;;;;;;;;;;9.18;73.28;95402.39;1721060;80;20554;-56
2021/05/13 03:31:31;;;;;;;;;;;;;;;9.29;73.38;95406.64;1711343;81;21116;-56
2021/05/13 03:33:58;;;;;;;;;;;;;;;9.41;73.22;95403.03;1722878;82;20641;-56
2021/05/13 03:36:24;;;;;;;;;;;;;;;9.48;72.85;95397.67;1721219;80;20558;-56
2021/05/13 03:38:50;;;;;;;;;;;;;;;9.57;72.75;95396.05;1723541;82;20263;-56
2021/05/13 03:41:16;;;;;;;;;;;;;;;9.63;72.26;95398.61;1726074;80;20533;-57
2021/05/13 03:43:43;;;;;;;;;;;;;;;9.67;72.21;95403.41;1715970;83;21007;-56
2021/05/13 03:46:10;;;;;;;;;;;;;;;9.74;72.17;95410.98;1721510;82;20263;-57
2021/05/13 03:48:36;;;;;;;;;;;;;;;9.81;71.77;95400.09;1723308;81;20243;-57
2021/05/13 03:51:02;;;;;;;;;;;;;;;9.83;71.60;95400.78;1722580;80;20234;-56
2021/05/13 03:53:29;;;;;;;;;;;;;;;9.88;71.67;95402.48;1720972;80;20252;-57
2021/05/13 03:55:55;;;;;;;;;;;;;;;9.96;71.34;95401.34;1726687;83;21181;-57
2021/05/13 03:58:23;;;;;;;;;;;;;;;10.05;70.83;95397.96;1714711;81;20278;-57
2021/05/13 04:03:17;;;;;;;;;;;;;;;10.06;70.24;95389.22;1726853;80;20268;-53
2021/05/13 04:05:44;;;;;;;;;;;;;;;10.05;70.20;95376.39;1721415;80;20271;-56
2021/05/13 04:08:11;;;;;;;;;;;;;;;10.05;70.14;95375.09;1721723;82;21081;-56
2021/05/13 04:10:40;;;;;;;;;;;;;;;10.06;70.18;95372.86;1717798;81;20235;-57
2021/05/13 04:13:10;;;;;;;;;;;;;;;10.09;70.21;95378.59;1729804;80;20263;-57
2021/05/13 04:15:36;;;;;;;;;;;;;;;10.14;70.03;95368.63;1719075;81;20564;-55
2021/05/13 04:18:03;;;;;;;;;;;;;;;10.17;69.96;95364.95;1714267;81;20578;-57
2021/05/13 04:20:29;;;;;;;;;;;;;;;10.22;69.93;95355.48;1726727;80;21062;-56
2021/05/13 04:22:55;;;;;;;;;;;;;;;10.33;69.77;95360.56;1715749;82;20551;-57
2021/05/13 04:25:21;;;;;;;;;;;;;;;10.42;69.53;95346.76;1730279;81;20229;-57
2021/05/13 04:27:48;;;;;;;;;;;;;;;10.54;69.31;95342.23;1724641;80;20245;-56
2021/05/13 04:30:14;;;;;;;;;;;;;;;10.76;68.77;95340.31;1721128;83;20244;-56
2021/05/13 04:32:41;;;;;;;;;;;;;;;11.23;68.40;95336.39;1721582;82;21032;-55
2021/05/13 04:35:08;;;;;;;;;;;;;;;12.09;66.70;95338.69;1714222;82;20549;-55
2021/05/13 04:37:34;;;;;;;;;;;;;;;13.14;64.14;95334.06;1721472;82;20574;-56
2021/05/13 04:40:01;;;;;;;;;;;;;;;14.18;61.49;95325.16;1720229;82;20275;-56
2021/05/13 04:42:28;;;;;;;;;;;;;;;15.20;58.64;95324.77;1714270;82;20254;-56
2021/05/13 04:44:56;;;;;;;;;;;;;;;16.11;55.83;95326.50;1717347;82;21034;-56
2021/05/13 04:47:35;;;;;;;;;;;;;;;16.93;54.01;95320.64;1721500;82;20258;-56
2021/05/13 04:49:56;;;;;;;;;;;;;;;17.73;51.52;95329.58;1719532;82;20238;-57
2021/05/13 04:52:24;;;;;;;;;;;;;;;18.39;49.77;95327.38;1726103;82;20281;-57
2021/05/13 04:54:51;;;;;;;;;;;;;;;19.02;48.20;95323.56;1720879;82;20690;-55
2021/05/13 04:57:18;;;;;;;;;;;;;;;19.57;46.81;95320.22;1723498;82;21104;-57
2021/05/13 04:59:46;;;;;;;;;;;;;;;19.82;45.66;95321.90;1720522;82;20250;-57
2021/05/13 05:02:13;;;;;;;;;;;;;;;19.84;45.45;95323.31;1718856;82;20219;-57
2021/05/13 05:04:39;;;;;;;;;;;;;;;19.92;45.22;95320.19;1718299;82;20568;-55
2021/05/13 05:07:05;;;;;;;;;;;;;;;19.83;45.26;95313.78;1720225;82;20256;-57
2021/05/13 05:09:32;;;;;;;;;;;;;;;19.76;44.77;95310.84;1725796;82;21098;-57
2021/05/13 05:11:58;;;;;;;;;;;;;;;19.44;45.60;95306.02;1718223;82;20230;-57
2021/05/13 05:14:25;;;;;;;;;;;;;;;19.24;46.30;95305.92;1716816;82;20224;-57
2021/05/13 05:16:52;;;;;;;;;;;;;;;19.13;47.09;95309.08;1702551;82;20261;-56
2021/05/13 05:19:18;;;;;;;;;;;;;;;19.11;47.16;95309.76;1724539;82;20227;-56
2021/05/13 05:21:44;;;;;;;;;;;;;;;19.00;47.28;95303.23;1718886;83;21069;-56
2021/05/13 05:24:12;;;;;;;;;;;;;;;18.76;47.53;95303.12;1713702;82;20306;-56
2021/05/13 05:26:40;;;;;;;;;;;;;;;18.51;48.06;95307.47;1723690;82;20256;-57
2021/05/13 05:29:06;;;;;;;;;;;;;;;18.27;48.40;95307.34;1711982;81;20238;-57
2021/05/13 05:31:33;;;;;;;;;;;;;;;18.07;48.82;95316.85;1709949;82;20696;-58
2021/05/13 05:34:00;;;;;;;;;;;;;;;17.87;49.27;95312.67;1710780;82;21089;-57
2021/05/13 05:36:28;;;;;;;;;;;;;;;17.68;49.56;95315.38;1717680;82;20232;-56
2021/05/13 05:38:55;;;;;;;;;;;;;;;17.62;49.75;95316.42;1720983;82;20650;-56
2021/05/13 05:41:23;;;;;;;;;;;;;;;18.03;49.60;95309.34;1707364;82;20262;-57
2021/05/13 05:43:49;;;;;;;;;;;;;;;18.87;48.16;95308.41;1713880;81;20263;-56
2021/05/13 05:46:15;;;;;;;;;;;;;;;19.54;47.08;95310.92;1719714;82;21058;-57
2021/05/13 05:48:42;;;;;;;;;;;;;;;19.89;45.86;95315.34;1718598;81;20232;-56
2021/05/13 05:51:08;;;;;;;;;;;;;;;19.88;45.43;95312.39;1724452;83;20223;-55
2021/05/13 05:53:34;;;;;;;;;;;;;;;19.72;45.37;95306.92;1720636;82;20318;-57
2021/05/13 05:56:01;;;;;;;;;;;;;;;19.53;46.25;95313.23;1723598;82;20291;-56
2021/05/13 05:58:29;;;;;;;;;;;;;;;19.36;46.65;95309.29;1714593;82;21075;-56
2021/05/13 06:00:56;;;;;;;;;;;;;;;19.20;46.99;95309.92;1714527;82;20544;-56
2021/05/13 06:03:22;;;;;;;;;;;;;;;19.18;47.41;95313.26;1719306;82;20254;-56
2021/05/13 06:05:49;;;;;;;;;;;;;;;19.22;47.30;95315.80;1724793;83;20212;-56
2021/05/13 06:08:15;;;;;;;;;;;;;;;19.26;46.81;95314.42;1721166;83;20247;-56
2021/05/13 06:10:41;;;;;;;;;;;;;;;19.45;46.92;95315.52;1711553;82;21117;-56
2021/05/13 06:13:08;;;;;;;;;;;;;;;19.97;46.39;95313.84;1725049;82;20228;-52
2021/05/13 06:15:34;;;;;;;;;;;;;;;20.28;45.66;95317.26;1717866;82;20154;-56
2021/05/13 06:18:01;;;;;;;;;;;;;;;20.36;45.24;95321.51;1717673;82;20584;-56
2021/05/13 06:20:28;;;;;;;;;;;;;;;20.47;45.40;95314.84;1722156;82;20589;-56
2021/05/13 06:22:55;;;;;;;;;;;;;;;20.73;44.98;95314.88;1708143;82;21778;-57
2021/05/13 06:25:22;;;;;;;;;;;;;;;21.07;44.68;95313.53;1700187;82;20191;-55
2021/05/13 06:27:49;;;;;;;;;;;;;;;21.28;43.34;95311.17;1710629;82;20543;-56
2021/05/13 06:30:16;;;;;;;;;;;;;;;21.55;42.94;95307.99;1722998;82;20274;-56
2021/05/13 06:32:43;;;;;;;;;;;;;;;21.78;41.90;95308.81;1722082;82;20224;-55
2021/05/13 06:35:10;;;;;;;;;;;;;;;21.28;42.97;95309.36;1726052;82;21047;-55
2021/05/13 06:37:37;;;;;;;;;;;;;;;21.40;43.22;95300.78;1715503;82;20250;-56
2021/05/13 06:40:04;;;;;;;;;;;;;;;21.59;42.92;95297.30;1723031;82;20558;-55
2021/05/13 06:42:30;;;;;;;;;;;;;;;21.55;42.62;95294.80;1713606;82;20238;-56
2021/05/13 06:44:56;;;;;;;;;;;;;;;21.69;43.13;95293.73;1720566;81;20227;-56
2021/05/13 06:47:23;;;;;;;;;;;;;;;22.03;42.42;95290.92;1720324;82;21038;-55
2021/05/13 06:49:49;;;;;;;;;;;;;;;22.45;42.24;95286.52;1715940;82;20188;-56
2021/05/13 06:52:16;;;;;;;;;;;;;;;22.82;41.62;95284.00;1707404;83;20262;-56
2021/05/13 06:54:44;;;;;;;;;;;;;;;22.93;40.99;95280.12;1711785;82;20268;-54
2021/05/13 06:57:10;;;;;;;;;;;;;;;22.90;40.45;95283.20;1709575;83;20553;-55
2021/05/13 06:59:41;;;;;;;;;;;;;;;22.47;40.75;95280.00;1714685;82;21761;-55
2021/05/13 07:02:06;;;;;;;;;;;;;;;22.11;41.87;95279.31;1712148;82;20260;-56
2021/05/13 07:04:32;;;;;;;;;;;;;;;21.66;42.61;95278.80;1721498;82;20248;-55
2021/05/13 07:06:59;;;;;;;;;;;;;;;21.31;43.49;95275.14;1717164;81;20242;-54
2021/05/13 07:09:26;;;;;;;;;;;;;;;21.09;44.74;95268.81;1713309;82;20227;-55
2021/05/13 07:11:53;;;;;;;;;;;;;;;20.91;45.16;95270.77;1715848;82;21082;-56
2021/05/13 07:14:21;;;;;;;;;;;;;;;20.49;45.61;95275.93;1716337;82;20231;-55
2021/05/13 07:16:49;;;;;;;;;;;;;;;20.03;46.59;95287.54;1718971;82;20571;-55
2021/05/13 07:19:15;;;;;;;;;;;;;;;19.62;47.76;95279.66;1715422;82;20574;-55
2021/05/13 07:21:41;;;;;;;;;;;;;;;19.32;48.62;95277.31;1718424;82;20296;-55
2021/05/13 07:24:09;;;;;;;;;;;;;;;18.89;49.82;95276.16;1716744;82;21041;-56
2021/05/13 07:26:35;;;;;;;;;;;;;;;18.59;51.25;95278.95;1707827;82;20256;-55
2021/05/13 07:29:02;;;;;;;;;;;;;;;18.11;52.00;95280.03;1713920;83;20255;-57
2021/05/13 07:31:28;;;;;;;;;;;;;;;17.71;53.37;95283.02;1688771;84;20288;-55
2021/05/13 07:33:54;;;;;;;;;;;;;;;17.38;54.85;95283.95;1695390;84;20567;-55
2021/05/13 07:36:23;;;;;;;;;;;;;;;17.15;55.83;95287.47;1691272;83;21079;-56
2021/05/13 07:38:49;;;;;;;;;;;;;;;16.95;55.88;95287.71;1688199;84;20600;-56
2021/05/13 07:41:16;;;;;;;;;;;;;;;16.62;56.50;95283.56;1694031;84;20261;-56
2021/05/13 07:43:43;;;;;;;;;;;;;;;16.39;57.63;95287.53;1701256;83;20231;-55
2021/05/13 07:46:10;;;;;;;;;;;;;;;16.25;58.39;95287.81;1697930;83;20567;-56
2021/05/13 07:48:36;;;;;;;;;;;;;;;16.13;59.18;95278.22;1693162;83;21668;-55
2021/05/13 07:51:05;;;;;;;;;;;;;;;16.05;59.77;95279.59;1703847;83;20239;-56
2021/05/13 07:53:31;;;;;;;;;;;;;;;16.06;59.78;95277.30;1694683;83;20175;-56
2021/05/13 07:56:09;;;;;;;;;;;;;;;16.20;60.52;95271.83;1690139;84;20281;-56
2021/05/13 07:58:31;;;;;;;;;;;;;;;16.36;59.63;95278.71;1710945;82;20610;-55
2021/05/13 08:00:58;;;;;;;;;;;;;;;16.30;59.43;95278.09;1709652;82;21030;-55
2021/05/13 08:03:25;;;;;;;;;;;;;;;16.12;60.26;95279.23;1706777;82;20302;-55
2021/05/13 08:05:51;;;;;;;;;;;;;;;15.89;61.35;95275.77;1697592;83;20276;-55
2021/05/13 08:08:18;;;;;;;;;;;;;;;15.72;62.22;95272.42;1695262;84;20264;-53
2021/05/13 08:10:44;;;;;;;;;;;;;;;15.73;62.46;95272.75;1689829;84;20279;-55
2021/05/13 08:13:10;;;;;;;;;;;;;;;15.87;62.85;95271.22;1685001;83;20965;-54
2021/05/13 08:15:36;;;;;;;;;;;;;;;16.10;61.90;95272.06;1691057;83;20320;-54
2021/05/13 08:18:03;;;;;;;;;;;;;;;16.45;60.61;95271.62;1706458;81;20236;-55
2021/05/13 08:20:29;;;;;;;;;;;;;;;16.71;59.66;95267.27;1734256;81;20235;-56
2021/05/13 08:22:55;;;;;;;;;;;;;;;16.83;59.48;95261.92;1725935;81;20254;-55
2021/05/13 08:25:22;;;;;;;;;;;;;;;16.94;58.76;95256.78;1725548;82;21738;-55
2021/05/13 08:27:50;;;;;;;;;;;;;;;17.17;58.81;95257.16;1723043;82;20238;-56
2021/05/13 08:30:19;;;;;;;;;;;;;;;17.41;58.41;95257.36;1723974;82;20261;-55
2021/05/13 08:32:50;;;;;;;;;;;;;;;17.76;56.90;95245.75;1722413;81;20245;-56
2021/05/13 08:35:17;;;;;;;;;;;;;;;18.16;54.98;95239.63;1727272;81;20209;-56
2021/05/13 08:37:46;;;;;;;;;;;;;;;18.33;55.61;95242.78;1710284;81;20540;-55
2021/05/13 08:40:13;;;;;;;;;;;;;;;18.34;55.09;95243.91;1718307;82;20246;-56
2021/05/13 08:42:40;;;;;;;;;;;;;;;18.36;55.21;95246.35;1711747;83;20241;-55
2021/05/13 08:45:08;;;;;;;;;;;;;;;18.54;53.93;95246.69;1714147;81;20588;-56
2021/05/13 08:47:41;;;;;;;;;;;;;;;18.79;52.55;95246.77;1712101;82;20264;-55
2021/05/13 08:50:08;;;;;;;;;;;;;;;19.01;49.60;95247.52;1716115;82;21081;-55
2021/05/13 08:52:35;;;;;;;;;;;;;;;19.22;48.55;95252.69;1714425;81;20558;-55
2021/05/13 08:55:08;;;;;;;;;;;;;;;19.36;48.07;95250.95;1703817;83;20209;-57
2021/05/13 08:57:34;;;;;;;;;;;;;;;19.45;47.03;95255.53;1730584;81;20246;-54
2021/05/13 09:00:01;;;;;;;;;;;;;;;19.37;47.51;95255.19;1700461;82;20282;-55
2021/05/13 09:02:29;;;;;;;;;;;;;;;19.30;47.56;95255.67;1722719;82;21090;-55
2021/05/13 09:04:57;;;;;;;;;;;;;;;19.22;47.54;95251.38;1721728;81;20257;-55
2021/05/13 09:07:27;;;;;;;;;;;;;;;19.15;48.14;95251.05;1694148;83;20250;-54
2021/05/13 09:10:07;;;;;;;;;;;;;;;19.05;47.72;95247.45;1713951;81;20556;-55
2021/05/13 09:12:37;;;;;;;;;;;;;;;18.96;47.28;95244.67;1722467;82;20207;-56
2021/05/13 09:15:07;;;;;;;;;;;;;;;18.91;47.58;95244.76;1726045;81;21081;-56
2021/05/13 09:17:35;;;;;;;;;;;;;;;18.95;48.03;95250.44;1718450;81;20287;-53
2021/05/13 09:20:02;;;;;;;;;;;;;;;18.97;47.81;95248.93;1719048;82;20263;-55
2021/05/13 09:22:29;;;;;;;;;;;;;;;18.90;47.75;95244.44;1716678;82;20271;-55
2021/05/13 09:25:04;;;;;;;;;;;;;;;18.85;47.90;95251.27;1712807;83;20231;-56
2021/05/13 09:27:43;;;;;;;;;;;;;;;18.82;51.57;95255.07;1692811;82;21846;-54
2021/05/13 09:30:21;;;;;;;;;;;;;;;18.70;51.50;95250.85;1699264;83;20207;-56
2021/05/13 09:32:50;;;;;;;;;;;;;;;18.69;52.02;95252.36;1723767;81;20243;-56
2021/05/13 09:35:19;;;;;;;;;;;;;;;18.60;52.22;95254.80;1724714;81;20183;-55
2021/05/13 09:37:49;;;;;;;;;;;;;;;18.36;53.44;95251.09;1736644;81;20261;-55
2021/05/13 09:40:22;;;;;;;;;;;;;;;18.37;51.39;95240.91;1721913;83;21748;-55
2021/05/13 09:42:48;;;;;;;;;;;;;;;18.46;49.79;95244.72;1718817;83;20553;-54
2021/05/13 09:45:15;;;;;;;;;;;;;;;18.50;48.49;95250.71;1724007;81;20263;-56
2021/05/13 09:47:42;;;;;;;;;;;;;;;18.48;47.43;95249.27;1706726;81;20625;-56
2021/05/13 09:50:18;;;;;;;;;;;;;;;18.45;47.02;95247.81;1720703;81;20301;-56
2021/05/13 09:52:52;;;;;;;;;;;;;;;18.45;47.15;95241.77;1714393;83;21082;-55
2021/05/13 09:55:32;;;;;;;;;;;;;;;18.40;46.16;95248.89;1714966;83;20244;-56
2021/05/13 09:58:09;;;;;;;;;;;;;;;18.33;46.58;95245.41;1725691;81;20227;-55
2021/05/13 10:00:40;;;;;;;;;;;;;;;18.30;46.52;95245.78;1719748;81;20511;-54
2021/05/13 10:03:12;;;;;;;;;;;;;;;18.24;46.34;95247.84;1724784;81;20258;-55
2021/05/13 10:05:40;;;;;;;;;;;;;;;18.13;46.76;95249.19;1718932;82;21022;-55
2021/05/13 10:08:06;;;;;;;;;;;;;;;18.14;47.34;95251.63;1717266;81;20549;-55
2021/05/13 10:10:33;;;;;;;;;;;;;;;18.11;46.64;95250.68;1715302;82;20591;-55
2021/05/13 10:12:59;;;;;;;;;;;;;;;17.99;47.15;95245.61;1687132;81;20231;-56
2021/05/13 10:15:26;;;;;;;;;;;;;;;17.94;46.86;95250.09;1725099;81;20286;-54
2021/05/13 10:17:55;;;;;;;;;;;;;;;17.93;47.35;95255.05;1715443;81;21047;-56
2021/05/13 10:20:23;;;;;;;;;;;;;;;17.93;47.94;95246.38;1732286;81;20576;-55
2021/05/13 10:22:49;;;;;;;;;;;;;;;17.96;47.79;95251.22;1706994;83;20211;-55
2021/05/13 10:25:24;;;;;;;;;;;;;;;17.97;47.61;95252.34;1702281;83;20610;-55
2021/05/13 10:27:59;;;;;;;;;;;;;;;17.98;48.55;95253.19;1715472;82;20794;-56
2021/05/13 10:30:30;;;;;;;;;;;;;;;18.07;48.22;95252.55;1709214;82;21097;-54
2021/05/13 10:33:10;;;;;;;;;;;;;;;18.12;48.66;95254.91;1707643;82;20347;-56
2021/05/13 10:35:39;;;;;;;;;;;;;;;18.17;48.67;95246.00;1705581;82;20539;-56
2021/05/13 10:38:12;;;;;;;;;;;;;;;18.20;48.49;95249.53;1718686;82;20550;-55
2021/05/13 10:43:28;;;;;;;;;;;;;;;18.19;48.47;95250.55;1714903;82;21086;-54
2021/05/13 10:45:56;;;;;;;;;;;;;;;18.19;47.91;95246.62;1715338;82;20614;-55
2021/05/13 10:48:26;;;;;;;;;;;;;;;18.14;48.11;95242.91;1708715;82;20574;-55
2021/05/13 10:51:00;;;;;;;;;;;;;;;18.16;48.36;95254.86;1713181;82;20567;-54
2021/05/13 10:53:47;;;;;;;;;;;;;;;18.23;47.83;95255.43;1712447;82;20208;-57
2021/05/13 10:56:29;;;;;;;;;;;;;;;18.23;48.32;95252.30;1712998;82;21106;-54
2021/05/13 10:59:11;;;;;;;;;;;;;;;18.29;47.97;95255.97;1708441;82;20271;-54
2021/05/13 11:01:48;;;;;;;;;;;;;;;18.33;47.79;95267.73;1713361;82;20602;-56
2021/05/13 11:04:24;;;;;;;;;;;;;;;18.34;47.39;95265.43;1717723;82;20582;-56
2021/05/13 11:06:55;;;;;;;;;;;;;;;18.29;47.53;95263.36;1717600;82;20288;-56
2021/05/13 11:09:47;;;;;;;;;;;;;;;18.23;47.99;95267.24;1709259;82;21036;-56
2021/05/13 11:12:32;;;;;;;;;;;;;;;18.16;47.21;95263.25;1713612;82;21306;-56
2021/05/13 11:15:15;;;;;;;;;;;;;;;18.06;48.00;95266.66;1712867;82;20231;-55
2021/05/13 11:17:55;;;;;;;;;;;;;;;18.03;48.02;95271.30;1714911;82;20288;-55
2021/05/13 11:20:31;;;;;;;;;;;;;;;18.06;48.02;95258.79;1708521;82;20304;-55
2021/05/13 11:23:07;;;;;;;;;;;;;;;18.05;47.84;95263.23;1710003;82;21182;-56
2021/05/13 11:25:42;;;;;;;;;;;;;;;18.01;47.96;95264.62;1701854;82;20316;-55
2021/05/13 11:28:47;;;;;;;;;;;;;;;17.97;48.23;95267.29;1720004;82;20594;-55
2021/05/13 11:31:13;;;;;;;;;;;;;;;17.94;48.37;95273.72;1712225;82;20224;-54
2021/05/13 11:33:43;;;;;;;;;;;;;;;17.81;49.25;95277.00;1718969;83;20219;-55
2021/05/13 11:36:12;;;;;;;;;;;;;;;17.77;49.83;95270.48;1710330;82;21661;-56
2021/05/13 11:38:38;;;;;;;;;;;;;;;17.80;49.63;95277.19;1716177;81;20299;-56
2021/05/13 11:41:05;;;;;;;;;;;;;;;17.81;49.71;95270.44;1722032;83;20251;-54
2021/05/13 11:43:33;;;;;;;;;;;;;;;17.74;50.80;95273.48;1698588;81;20541;-55
2021/05/13 11:46:01;;;;;;;;;;;;;;;17.68;51.69;95270.78;1723161;82;20630;-56
2021/05/13 11:48:31;;;;;;;;;;;;;;;17.58;52.64;95281.56;1712531;82;21133;-57
2021/05/13 11:51:06;;;;;;;;;;;;;;;17.54;53.37;95280.31;1716046;82;20577;-55
2021/05/13 11:53:33;;;;;;;;;;;;;;;17.58;54.27;95282.87;1723153;82;20571;-55
2021/05/13 11:56:03;;;;;;;;;;;;;;;17.70;55.35;95277.48;1719303;83;20225;-55
2021/05/13 11:58:43;;;;;;;;;;;;;;;17.81;54.67;95282.73;1720285;82;20224;-55
2021/05/13 12:01:30;;;;;;;;;;;;;;;17.88;54.73;95277.58;1721291;82;21012;-55
2021/05/13 12:04:05;;;;;;;;;;;;;;;17.99;53.46;95273.16;1723369;83;20232;-55
2021/05/13 12:06:59;;;;;;;;;;;;;;;18.02;53.19;95270.97;1721771;82;20265;-55
2021/05/13 12:09:27;;;;;;;;;;;;;;;18.14;53.48;95270.48;1725116;82;20264;-56
2021/05/13 12:11:54;;;;;;;;;;;;;;;18.29;52.79;95269.09;1717614;82;20234;-56
2021/05/13 12:14:27;;;;;;;;;;;;;;;18.34;50.61;95267.55;1713771;82;21056;-56
2021/05/13 12:16:55;;;;;;;;;;;;;;;18.21;50.74;95267.43;1722619;83;20211;-55
2021/05/13 12:19:22;;;;;;;;;;;;;;;18.27;51.63;95264.54;1718349;82;20263;-55
2021/05/13 12:21:53;;;;;;;;;;;;;;;18.42;50.50;95262.67;1721030;81;20250;-57
2021/05/13 12:24:30;;;;;;;;;;;;;;;18.44;49.41;95263.77;1731299;81;20590;-54
2021/05/13 12:26:57;;;;;;;;;;;;;;;18.48;49.20;95265.02;1714006;83;21788;-55
2021/05/13 12:29:24;;;;;;;;;;;;;;;18.53;49.84;95265.27;1724588;81;20301;-55
2021/05/13 12:31:51;;;;;;;;;;;;;;;18.76;50.80;95265.02;1717092;83;20254;-55
2021/05/13 12:34:40;;;;;;;;;;;;;;;19.03;50.81;95261.27;1719572;81;20275;-55
2021/05/13 12:37:08;;;;;;;;;;;;;;;19.30;50.60;95261.73;1719619;81;20256;-55
2021/05/13 12:39:37;;;;;;;;;;;;;;;19.56;50.13;95260.23;1714348;81;22206;-56
2021/05/13 12:42:04;;;;;;;;;;;;;;;19.72;49.20;95258.25;1722306;83;20264;-56
2021/05/13 12:44:36;;;;;;;;;;;;;;;19.85;49.04;95256.99;1687935;83;20250;-56
2021/05/13 12:47:03;;;;;;;;;;;;;;;20.01;48.65;95257.14;1711412;81;20559;-56
2021/05/13 12:49:31;;;;;;;;;;;;;;;20.12;48.34;95254.44;1703377;83;20235;-54
2021/05/13 12:52:14;;;;;;;;;;;;;;;20.21;48.22;95254.05;1713926;83;21065;-57
2021/05/13 12:54:41;;;;;;;;;;;;;;;20.29;47.77;95252.22;1714330;81;20258;-55
2021/05/13 12:57:19;;;;;;;;;;;;;;;20.29;47.35;95248.27;1722942;81;20223;-56
2021/05/13 12:59:54;;;;;;;;;;;;;;;20.21;46.99;95256.68;1725522;81;20252;-55
2021/05/13 13:02:22;;;;;;;;;;;;;;;20.09;46.40;95254.32;1718978;83;20294;-57
2021/05/13 13:04:52;;;;;;;;;;;;;;;20.00;45.56;95252.87;1714881;81;21653;-55
2021/05/13 13:07:20;;;;;;;;;;;;;;;19.90;45.70;95253.29;1728254;81;20232;-54